Time;durP1;ratioP1;P1;durP2;ratioP2;P2;SDS_P1;SDS_P2;PMS_P1;PMS_P2;Temp;Humidity;BMP_temperature;BMP_pressure;BME280_temperature;BME280_humidity;BME280_pressure;Samples;Min_cycle;Max_cycle;Signal;HPM_P1;HPM_P2
2022/09/30 00:01:51;;;;;;;10.20;7.00;;;10.50;99.90;;;;;;5089355;28;20223;-33
2022/09/30 00:04:23;;;;;;;8.00;6.80;;;10.40;99.90;;;;;;5087617;28;20207;-32
2022/09/30 00:06:54;;;;;;;9.17;7.10;;;10.40;99.90;;;;;;5077409;28;20713;-32
2022/09/30 00:09:21;;;;;;;11.50;6.87;;;10.30;99.90;;;;;;5068111;28;20327;-32
2022/09/30 00:11:49;;;;;;;8.30;6.87;;;10.40;99.90;;;;;;5067054;28;20207;-32
2022/09/30 00:14:21;;;;;;;9.57;7.77;;;10.30;99.90;;;;;;5068253;28;20227;-32
2022/09/30 00:16:49;;;;;;;8.53;6.70;;;10.30;99.90;;;;;;5069192;28;20298;-32
2022/09/30 00:19:19;;;;;;;8.00;6.87;;;10.30;99.90;;;;;;5066585;28;20247;-32
2022/09/30 00:21:48;;;;;;;9.90;7.53;;;10.30;99.90;;;;;;5068667;28;20572;-32
2022/09/30 00:24:15;;;;;;;10.67;7.77;;;10.30;99.90;;;;;;5066608;28;20601;-31
2022/09/30 00:26:45;;;;;;;10.00;7.47;;;10.20;99.90;;;;;;5068216;28;20686;-32
2022/09/30 00:29:14;;;;;;;9.50;7.80;;;10.30;99.90;;;;;;5068014;28;20227;-32
2022/09/30 00:31:41;;;;;;;11.70;7.77;;;10.20;99.90;;;;;;5068195;28;20294;-32
2022/09/30 00:34:10;;;;;;;10.47;7.83;;;10.20;99.90;;;;;;5068099;28;20198;-32
2022/09/30 00:36:44;;;;;;;9.77;7.47;;;10.20;99.90;;;;;;5066608;28;20195;-32
2022/09/30 00:39:20;;;;;;;10.70;8.07;;;10.10;99.90;;;;;;5067151;28;20204;-32
2022/09/30 00:41:51;;;;;;;8.70;7.30;;;10.10;99.90;;;;;;5068055;28;20740;-32
2022/09/30 00:44:51;;;;;;;9.53;7.13;;;10.10;99.90;;;;;;5067535;28;20207;-32
2022/09/30 00:47:21;;;;;;;8.53;7.63;;;10.10;99.90;;;;;;5067690;28;20200;-31
2022/09/30 00:49:56;;;;;;;13.13;8.23;;;10.10;99.90;;;;;;5067640;28;20219;-32
2022/09/30 00:52:23;;;;;;;9.87;7.70;;;10.00;99.90;;;;;;5067856;28;20199;-31
2022/09/30 00:54:56;;;;;;;9.90;7.87;;;10.00;99.90;;;;;;5066936;28;20677;-31
2022/09/30 00:57:24;;;;;;;9.67;8.10;;;10.00;99.90;;;;;;5067435;28;20211;-31
2022/09/30 00:59:53;;;;;;;12.30;8.37;;;10.00;99.90;;;;;;5067305;28;20231;-32
2022/09/30 01:02:23;;;;;;;9.73;7.60;;;10.00;99.90;;;;;;5076743;28;20206;-31
2022/09/30 01:04:53;;;;;;;11.87;8.27;;;10.00;99.90;;;;;;5067619;28;20245;-31
2022/09/30 01:07:22;;;;;;;8.93;8.03;;;9.90;99.90;;;;;;5066627;28;20214;-31
2022/09/30 01:09:50;;;;;;;11.47;8.23;;;9.90;99.90;;;;;;5065439;28;20219;-31
2022/09/30 01:12:23;;;;;;;10.10;8.20;;;9.90;99.90;;;;;;5065951;28;20285;-31
2022/09/30 01:14:52;;;;;;;12.57;8.20;;;9.90;99.90;;;;;;5067124;28;20206;-31
2022/09/30 01:17:31;;;;;;;10.53;8.53;;;9.90;99.90;;;;;;5065783;28;20304;-31
2022/09/30 01:20:29;;;;;;;10.00;8.47;;;9.90;99.90;;;;;;5067303;28;21090;-31
2022/09/30 01:23:15;;;;;;;10.50;8.80;;;9.80;99.90;;;;;;5066676;28;20207;-31
2022/09/30 01:26:03;;;;;;;10.73;8.20;;;9.80;99.90;;;;;;5066729;28;20701;-31
2022/09/30 01:29:05;;;;;;;10.53;9.00;;;9.80;99.90;;;;;;5067413;28;20228;-31
2022/09/30 01:31:55;;;;;;;10.47;8.77;;;9.80;99.90;;;;;;5066669;28;20199;-31
2022/09/30 01:34:36;;;;;;;9.27;8.30;;;9.70;99.90;;;;;;5067066;28;20212;-31
2022/09/30 01:37:34;;;;;;;9.43;8.20;;;9.80;99.90;;;;;;5066233;28;20217;-31
2022/09/30 01:40:35;;;;;;;10.67;8.50;;;9.70;99.90;;;;;;5066287;28;20247;-31
2022/09/30 01:43:17;;;;;;;10.03;8.43;;;9.70;99.90;;;;;;5066418;28;20270;-31
2022/09/30 01:45:50;;;;;;;10.33;9.27;;;9.70;99.90;;;;;;5067130;28;20206;-31
2022/09/30 01:48:24;;;;;;;9.57;8.50;;;9.60;99.90;;;;;;5066748;28;20727;-31
2022/09/30 01:51:05;;;;;;;9.53;8.53;;;9.70;99.90;;;;;;5065073;28;20237;-31
2022/09/30 01:53:44;;;;;;;9.87;8.77;;;9.60;99.90;;;;;;5066240;28;20565;-31
2022/09/30 01:56:21;;;;;;;10.20;8.77;;;9.60;99.90;;;;;;5068533;28;20225;-31
2022/09/30 01:59:10;;;;;;;11.43;8.60;;;9.60;99.90;;;;;;5066574;28;20797;-31
2022/09/30 02:01:45;;;;;;;10.70;8.80;;;9.60;99.90;;;;;;5065158;28;20613;-31
2022/09/30 02:04:19;;;;;;;10.67;9.53;;;9.60;99.90;;;;;;5066511;28;20282;-30
2022/09/30 02:06:55;;;;;;;13.33;9.53;;;9.60;99.90;;;;;;5066529;28;20650;-32
2022/09/30 02:09:39;;;;;;;10.27;8.80;;;9.50;99.90;;;;;;5065641;28;20410;-31
2022/09/30 02:12:18;;;;;;;10.93;9.43;;;9.50;99.90;;;;;;5064583;28;20225;-31
2022/09/30 02:14:54;;;;;;;10.73;9.53;;;9.50;99.90;;;;;;5064707;28;20218;-31
2022/09/30 02:17:45;;;;;;;11.03;9.20;;;9.50;99.90;;;;;;5064712;28;20574;-31
2022/09/30 02:20:23;;;;;;;12.13;9.80;;;9.40;99.90;;;;;;5066652;28;20245;-31
2022/09/30 02:23:05;;;;;;;11.13;8.97;;;9.40;99.90;;;;;;5065358;28;20211;-31
2022/09/30 02:25:57;;;;;;;10.57;9.23;;;9.40;99.90;;;;;;5065645;28;20737;-31
2022/09/30 02:28:30;;;;;;;11.50;9.73;;;9.40;99.90;;;;;;5065718;28;20273;-31
2022/09/30 02:31:02;;;;;;;11.93;9.07;;;9.30;99.90;;;;;;5066082;28;20192;-31
2022/09/30 02:33:39;;;;;;;11.33;9.57;;;9.30;99.90;;;;;;5064535;28;20697;-31
2022/09/30 02:36:24;;;;;;;11.97;9.17;;;9.30;99.90;;;;;;5065883;28;20195;-31
2022/09/30 02:39:02;;;;;;;10.47;9.37;;;9.30;99.90;;;;;;5064872;28;20203;-31
2022/09/30 02:41:35;;;;;;;10.93;9.20;;;9.30;99.90;;;;;;5065885;28;20283;-31
2022/09/30 02:44:08;;;;;;;13.60;10.27;;;9.30;99.90;;;;;;5064078;28;20203;-31
2022/09/30 02:46:59;;;;;;;11.00;9.57;;;9.30;99.90;;;;;;5064728;28;20200;-31
2022/09/30 02:49:55;;;;;;;11.80;9.70;;;9.20;99.90;;;;;;5066557;28;20205;-31
2022/09/30 02:52:33;;;;;;;12.03;9.07;;;9.20;99.90;;;;;;5065309;28;20195;-31
2022/09/30 02:55:20;;;;;;;11.03;9.47;;;9.20;99.90;;;;;;5065240;28;20210;-31
2022/09/30 02:57:59;;;;;;;12.23;9.63;;;9.20;99.90;;;;;;5065725;28;20218;-31
2022/09/30 03:00:27;;;;;;;11.40;9.23;;;9.20;99.90;;;;;;5065644;28;20203;-31
2022/09/30 03:03:01;;;;;;;11.27;8.97;;;9.20;99.90;;;;;;5064098;28;20199;-30
2022/09/30 03:05:28;;;;;;;12.97;9.13;;;9.20;99.90;;;;;;5065378;28;20393;-31
2022/09/30 03:08:01;;;;;;;13.43;9.80;;;9.20;99.90;;;;;;5065154;28;20269;-31
2022/09/30 03:10:34;;;;;;;12.47;9.70;;;9.10;99.90;;;;;;5065100;28;20250;-31
2022/09/30 03:13:06;;;;;;;11.67;9.33;;;9.10;99.90;;;;;;5065484;28;20200;-31
2022/09/30 03:16:12;;;;;;;10.73;9.23;;;9.10;99.90;;;;;;5065885;28;20199;-31
2022/09/30 03:18:58;;;;;;;13.17;9.03;;;9.10;99.90;;;;;;5062574;28;20239;-31
2022/09/30 03:21:54;;;;;;;10.60;9.33;;;9.10;99.90;;;;;;5065303;28;20206;-31
2022/09/30 03:24:50;;;;;;;10.33;8.53;;;9.10;99.90;;;;;;5065109;28;20212;-31
2022/09/30 03:27:29;;;;;;;10.60;9.03;;;9.00;99.90;;;;;;5065517;28;20573;-31
2022/09/30 03:30:19;;;;;;;10.60;8.77;;;9.00;99.90;;;;;;5063842;28;20300;-31
2022/09/30 03:33:06;;;;;;;11.10;9.17;;;9.00;99.90;;;;;;5065087;28;20475;-31
2022/09/30 03:35:58;;;;;;;11.37;9.63;;;8.90;99.90;;;;;;5065450;28;20666;-31
2022/09/30 03:39:07;;;;;;;11.03;9.57;;;9.00;99.90;;;;;;5064738;28;20211;-31
2022/09/30 03:41:45;;;;;;;11.97;9.23;;;8.90;99.90;;;;;;5045387;28;21041;-31
2022/09/30 03:44:18;;;;;;;11.77;9.40;;;8.90;99.90;;;;;;5066611;28;20199;-31
2022/09/30 03:46:53;;;;;;;13.43;9.83;;;8.90;99.90;;;;;;5065663;28;20196;-31
2022/09/30 03:49:29;;;;;;;12.07;9.13;;;8.90;99.90;;;;;;5065055;28;20219;-31
2022/09/30 03:52:03;;;;;;;11.43;9.37;;;8.90;99.90;;;;;;5065107;28;20643;-31
2022/09/30 03:54:37;;;;;;;12.93;10.20;;;8.90;99.90;;;;;;5064083;28;20200;-32
2022/09/30 03:57:04;;;;;;;12.03;9.63;;;8.90;99.90;;;;;;5065160;28;20202;-31
2022/09/30 03:59:31;;;;;;;11.73;9.17;;;8.90;99.90;;;;;;5066178;28;20207;-31
2022/09/30 04:01:58;;;;;;;12.47;9.43;;;8.90;99.90;;;;;;5069158;28;20489;-32
2022/09/30 04:04:25;;;;;;;10.97;9.47;;;8.90;99.90;;;;;;5068973;28;20211;-32
2022/09/30 04:06:55;;;;;;;11.13;9.70;;;8.90;99.90;;;;;;5068903;28;20214;-32
2022/09/30 04:09:26;;;;;;;13.47;10.33;;;8.90;99.90;;;;;;5067869;28;20246;-32
2022/09/30 04:11:53;;;;;;;12.73;9.90;;;8.90;99.90;;;;;;5067040;28;20195;-32
2022/09/30 04:14:23;;;;;;;11.33;9.73;;;8.90;99.90;;;;;;5068337;28;20294;-32
2022/09/30 04:16:52;;;;;;;11.87;10.33;;;8.90;99.90;;;;;;5068377;28;20202;-32
2022/09/30 04:19:22;;;;;;;13.30;10.53;;;8.90;99.90;;;;;;5068207;28;20238;-32
2022/09/30 04:21:53;;;;;;;10.90;9.33;;;8.90;99.90;;;;;;5068505;28;20269;-31
2022/09/30 04:24:21;;;;;;;12.27;10.10;;;8.90;99.90;;;;;;5067445;28;20196;-33
2022/09/30 04:26:51;;;;;;;12.23;9.70;;;8.80;99.90;;;;;;5068373;28;20216;-32
2022/09/30 04:29:20;;;;;;;10.77;9.67;;;8.80;99.90;;;;;;5068040;28;20223;-32
2022/09/30 04:31:48;;;;;;;10.57;9.47;;;8.80;99.90;;;;;;5068644;28;20265;-32
2022/09/30 04:34:15;;;;;;;10.83;9.73;;;8.80;99.90;;;;;;5068357;28;20633;-32
2022/09/30 04:36:43;;;;;;;11.30;9.33;;;8.80;99.90;;;;;;5067622;28;20650;-33
2022/09/30 04:39:10;;;;;;;10.93;9.43;;;8.80;99.90;;;;;;5066940;28;20214;-31
2022/09/30 04:41:45;;;;;;;11.50;9.73;;;8.70;99.90;;;;;;5067657;28;20207;-31
2022/09/30 04:44:12;;;;;;;11.90;9.80;;;8.70;99.90;;;;;;5073769;28;20844;-32
2022/09/30 04:46:39;;;;;;;12.33;9.70;;;8.70;99.90;;;;;;5068368;28;20195;-32
2022/09/30 04:49:07;;;;;;;12.20;10.33;;;8.70;99.90;;;;;;5067726;28;20227;-32
2022/09/30 04:51:42;;;;;;;14.30;9.57;;;8.70;99.90;;;;;;5067968;28;20191;-32
2022/09/30 04:54:12;;;;;;;12.23;9.73;;;8.70;99.90;;;;;;5065383;28;20207;-31
2022/09/30 04:56:42;;;;;;;12.33;10.50;;;8.70;99.90;;;;;;5067771;28;20207;-31
2022/09/30 04:59:14;;;;;;;14.97;11.37;;;8.70;99.90;;;;;;5067431;28;20452;-32
2022/09/30 05:01:43;;;;;;;12.87;11.47;;;8.70;99.90;;;;;;5084478;28;20714;-32
2022/09/30 05:04:15;;;;;;;15.27;11.40;;;8.60;99.90;;;;;;5080585;28;20761;-32
2022/09/30 05:06:42;;;;;;;13.20;10.77;;;8.60;99.90;;;;;;5080049;28;20315;-32
2022/09/30 05:09:14;;;;;;;15.87;11.50;;;8.60;99.90;;;;;;5078649;28;20230;-32
2022/09/30 05:11:46;;;;;;;12.97;11.13;;;8.70;99.90;;;;;;5075302;28;20214;-32
2022/09/30 05:14:13;;;;;;;13.50;11.33;;;8.60;99.90;;;;;;5081609;28;20199;-31
2022/09/30 05:16:40;;;;;;;15.97;11.40;;;8.60;99.90;;;;;;5083268;28;20207;-33
2022/09/30 05:19:08;;;;;;;12.87;10.33;;;8.60;99.90;;;;;;5082636;28;20266;-31
2022/09/30 05:21:35;;;;;;;13.60;10.63;;;8.60;99.90;;;;;;5083054;28;20211;-32
2022/09/30 05:24:05;;;;;;;13.90;10.10;;;8.60;99.90;;;;;;5086006;28;20238;-32
2022/09/30 05:26:36;;;;;;;14.33;10.97;;;8.60;99.90;;;;;;5087178;28;20249;-33
2022/09/30 05:29:08;;;;;;;13.67;10.80;;;8.60;99.90;;;;;;5087308;28;20704;-32
2022/09/30 05:31:40;;;;;;;12.73;10.73;;;8.60;99.90;;;;;;5085225;28;20746;-32
2022/09/30 05:34:07;;;;;;;15.07;11.57;;;8.60;99.90;;;;;;5080404;28;20218;-32
2022/09/30 05:36:35;;;;;;;17.23;11.03;;;8.60;99.90;;;;;;5061381;28;20209;-32
2022/09/30 05:39:04;;;;;;;17.23;12.10;;;8.60;99.90;;;;;;5067094;28;20227;-32
2022/09/30 05:41:34;;;;;;;17.23;11.90;;;8.60;99.90;;;;;;5076332;28;20213;-32
2022/09/30 05:44:04;;;;;;;16.07;11.80;;;8.60;99.90;;;;;;5068391;28;20207;-32
2022/09/30 05:46:31;;;;;;;19.43;12.10;;;8.60;99.90;;;;;;5065225;28;20207;-32
2022/09/30 05:49:05;;;;;;;20.50;12.70;;;8.60;99.90;;;;;;5065960;28;20647;-32
2022/09/30 05:51:35;;;;;;;18.37;12.80;;;8.60;99.90;;;;;;5067012;28;20217;-32
2022/09/30 05:54:02;;;;;;;17.77;12.10;;;8.60;99.90;;;;;;5065817;28;20534;-33
2022/09/30 05:56:37;;;;;;;15.03;11.67;;;8.60;99.90;;;;;;5066264;28;20738;-32
2022/09/30 05:59:05;;;;;;;19.87;12.00;;;8.60;99.90;;;;;;5063626;28;20198;-31
2022/09/30 06:01:35;;;;;;;17.73;12.17;;;8.60;99.90;;;;;;5084358;28;20677;-32
2022/09/30 06:04:02;;;;;;;15.63;11.67;;;8.60;99.90;;;;;;5084914;28;20202;-32
2022/09/30 06:06:30;;;;;;;19.30;12.27;;;8.60;99.90;;;;;;5084995;28;20728;-31
2022/09/30 06:08:57;;;;;;;17.27;12.70;;;8.60;99.90;;;;;;5079544;28;20937;-32
2022/09/30 06:11:27;;;;;;;14.80;12.03;;;8.60;99.90;;;;;;5076601;28;20299;-32
2022/09/30 06:13:55;;;;;;;17.13;12.50;;;8.70;99.90;;;;;;5074610;28;20218;-33
2022/09/30 06:16:22;;;;;;;20.53;12.27;;;8.70;99.90;;;;;;5078967;28;20195;-32
2022/09/30 06:18:54;;;;;;;19.13;12.20;;;8.70;99.90;;;;;;5078291;28;20326;-32
2022/09/30 06:21:22;;;;;;;16.43;12.90;;;8.70;99.90;;;;;;5084861;28;20533;-32
2022/09/30 06:23:49;;;;;;;14.93;11.63;;;8.70;99.90;;;;;;5082691;28;20230;-33
2022/09/30 06:26:16;;;;;;;18.13;11.57;;;8.70;99.90;;;;;;5083860;28;20647;-32
2022/09/30 06:28:44;;;;;;;15.60;10.93;;;8.70;99.90;;;;;;5085521;28;20203;-32
2022/09/30 06:31:18;;;;;;;15.33;12.07;;;8.70;99.90;;;;;;5080385;28;20227;-32
2022/09/30 06:33:45;;;;;;;19.83;12.67;;;8.70;99.90;;;;;;5078078;28;20211;-32
2022/09/30 06:36:16;;;;;;;17.30;12.93;;;8.80;99.90;;;;;;5086001;28;20301;-31
2022/09/30 06:38:51;;;;;;;16.13;13.13;;;8.80;99.90;;;;;;5082780;28;20238;-33
2022/09/30 06:41:26;;;;;;;17.57;13.70;;;8.80;99.90;;;;;;5079417;28;20588;-33
2022/09/30 06:43:56;;;;;;;15.43;13.33;;;8.80;99.90;;;;;;5077666;28;20202;-33
2022/09/30 06:46:34;;;;;;;18.73;13.57;;;8.90;99.90;;;;;;5079929;28;20202;-32
2022/09/30 06:49:10;;;;;;;17.40;13.67;;;8.90;99.90;;;;;;5081274;28;20205;-32
2022/09/30 06:51:53;;;;;;;18.23;13.87;;;8.90;99.90;;;;;;5072635;28;20310;-32
2022/09/30 06:54:21;;;;;;;19.80;12.80;;;8.90;99.90;;;;;;5082663;28;20203;-32
2022/09/30 06:56:48;;;;;;;17.13;13.77;;;8.90;99.90;;;;;;5081923;28;20293;-32
2022/09/30 06:59:18;;;;;;;18.00;14.10;;;9.00;99.90;;;;;;5080449;28;20203;-32
2022/09/30 07:01:50;;;;;;;20.57;14.27;;;9.00;99.90;;;;;;5073268;28;20289;-32
2022/09/30 07:04:20;;;;;;;22.70;15.00;;;9.10;99.90;;;;;;5080946;28;20559;-31
2022/09/30 07:06:47;;;;;;;18.20;14.80;;;9.10;99.90;;;;;;5077055;28;20438;-32
2022/09/30 07:09:14;;;;;;;18.10;14.70;;;9.10;99.90;;;;;;5083323;28;20872;-32
2022/09/30 07:11:44;;;;;;;20.40;15.23;;;9.20;99.90;;;;;;5084410;28;20247;-32
2022/09/30 07:14:13;;;;;;;22.57;16.67;;;9.20;99.90;;;;;;5085753;28;20229;-32
2022/09/30 07:16:43;;;;;;;22.13;16.23;;;9.30;99.90;;;;;;5083277;28;20203;-31
2022/09/30 07:19:13;;;;;;;20.13;16.33;;;9.30;99.90;;;;;;5082741;28;20686;-32
2022/09/30 07:21:43;;;;;;;19.23;15.30;;;9.40;99.90;;;;;;5085238;28;20677;-32
2022/09/30 07:24:10;;;;;;;19.07;15.23;;;9.40;99.90;;;;;;5082346;28;20643;-31
2022/09/30 07:26:40;;;;;;;18.93;15.53;;;9.50;99.90;;;;;;5085722;28;20199;-32
2022/09/30 07:29:07;;;;;;;22.97;16.23;;;9.50;99.90;;;;;;5084935;28;20191;-33
2022/09/30 07:31:37;;;;;;;23.53;17.70;;;9.60;99.90;;;;;;5085026;28;20195;-32
2022/09/30 07:34:10;;;;;;;23.53;16.80;;;9.70;99.90;;;;;;5083715;28;20240;-32
2022/09/30 07:36:40;;;;;;;27.00;18.83;;;9.70;99.90;;;;;;5089575;28;20286;-31
2022/09/30 07:39:09;;;;;;;25.30;19.60;;;9.80;99.90;;;;;;5085811;28;20215;-31
2022/09/30 07:41:38;;;;;;;21.93;18.77;;;9.90;99.90;;;;;;5088436;28;20202;-32
2022/09/30 07:44:13;;;;;;;25.43;17.80;;;9.90;99.90;;;;;;5087413;28;20694;-31
2022/09/30 07:46:45;;;;;;;26.37;19.53;;;10.00;99.90;;;;;;5083570;28;20211;-32
2022/09/30 07:49:23;;;;;;;22.85;18.85;;;10.10;99.90;;;;;;5070946;28;20207;-31
2022/09/30 07:51:55;;;;;;;23.77;18.97;;;10.10;99.90;;;;;;5076164;28;20446;-32
2022/09/30 07:54:32;;;;;;;22.30;18.30;;;10.20;99.90;;;;;;5082967;28;20237;-31
2022/09/30 07:57:06;;;;;;;22.27;17.93;;;10.30;99.90;;;;;;5082972;28;20746;-32
2022/09/30 07:59:40;;;;;;;21.70;18.53;;;10.30;99.90;;;;;;5083145;28;20643;-31
2022/09/30 08:02:17;;;;;;;23.23;18.40;;;10.40;99.90;;;;;;5084952;28;20248;-32
2022/09/30 08:04:45;;;;;;;27.60;18.33;;;10.50;99.90;;;;;;5087795;28;20206;-31
2022/09/30 08:07:17;;;;;;;25.00;18.77;;;10.50;99.90;;;;;;5083664;28;20779;-32
2022/09/30 08:09:45;;;;;;;21.00;17.67;;;10.60;99.90;;;;;;5085184;28;20512;-32
2022/09/30 08:12:17;;;;;;;22.30;17.40;;;10.60;99.90;;;;;;5087885;28;20191;-32
2022/09/30 08:14:51;;;;;;;23.37;18.40;;;10.70;99.90;;;;;;5086923;28;20215;-31
2022/09/30 08:17:18;;;;;;;23.50;18.60;;;10.80;99.90;;;;;;5082601;28;20735;-32
2022/09/30 08:19:45;;;;;;;20.83;17.20;;;10.80;99.90;;;;;;5085351;28;20732;-32
2022/09/30 08:22:13;;;;;;;22.70;17.73;;;10.90;99.90;;;;;;5085377;28;20199;-32
2022/09/30 08:24:41;;;;;;;21.27;17.83;;;11.00;99.90;;;;;;5085091;28;20680;-31
2022/09/30 08:27:10;;;;;;;26.37;17.87;;;11.00;99.90;;;;;;5069393;28;20307;-32
2022/09/30 08:29:40;;;;;;;24.13;18.60;;;11.10;99.90;;;;;;5086447;28;20587;-31
2022/09/30 08:32:31;;;;;;;21.93;17.13;;;11.10;99.90;;;;;;5085973;28;20195;-30
2022/09/30 08:35:00;;;;;;;24.43;18.47;;;11.20;99.90;;;;;;5085247;28;20289;-31
2022/09/30 08:37:32;;;;;;;25.23;18.40;;;11.30;99.90;;;;;;5085388;28;20234;-32
2022/09/30 08:40:00;;;;;;;21.10;17.00;;;11.30;99.90;;;;;;5084422;28;20307;-30
2022/09/30 08:43:02;;;;;;;21.43;17.23;;;11.40;99.90;;;;;;5085198;28;20210;-30
2022/09/30 08:46:02;;;;;;;21.87;17.63;;;11.50;99.90;;;;;;5083684;28;20210;-31
2022/09/30 08:48:41;;;;;;;24.53;17.73;;;11.60;99.90;;;;;;5084174;28;20215;-31
2022/09/30 08:51:35;;;;;;;22.33;17.10;;;11.60;99.90;;;;;;5075955;28;20645;-31
2022/09/30 08:54:05;;;;;;;19.77;16.60;;;11.70;99.90;;;;;;5084249;28;20235;-31
2022/09/30 08:56:36;;;;;;;22.80;17.57;;;11.80;99.90;;;;;;5086840;28;20217;-31
2022/09/30 08:59:14;;;;;;;22.13;17.70;;;11.80;99.90;;;;;;5084515;28;20341;-30
2022/09/30 09:01:47;;;;;;;22.40;16.10;;;11.90;99.90;;;;;;5078282;28;20256;-32
2022/09/30 09:04:17;;;;;;;21.90;17.00;;;12.00;99.90;;;;;;5079280;28;20298;-32
2022/09/30 09:07:17;;;;;;;23.67;18.23;;;12.10;99.90;;;;;;5067959;28;20290;-31
2022/09/30 09:09:52;;;;;;;22.47;17.33;;;12.20;99.90;;;;;;5082421;28;20209;-31
2022/09/30 09:12:54;;;;;;;25.13;17.23;;;12.20;99.90;;;;;;5085566;28;20207;-31
2022/09/30 09:15:49;;;;;;;21.53;15.93;;;12.30;99.90;;;;;;5084366;28;20207;-32
2022/09/30 09:18:19;;;;;;;25.30;16.20;;;12.40;99.90;;;;;;5085080;28;20235;-31
2022/09/30 09:21:02;;;;;;;22.87;16.97;;;12.50;99.90;;;;;;5082953;28;20318;-32
2022/09/30 09:23:32;;;;;;;19.70;15.33;;;12.50;99.90;;;;;;5078574;28;20249;-32
2022/09/30 09:25:59;;;;;;;21.10;15.27;;;12.60;99.90;;;;;;5081984;28;20638;-32
2022/09/30 09:28:43;;;;;;;20.90;15.43;;;12.70;99.90;;;;;;5084498;28;20199;-32
2022/09/30 09:31:15;;;;;;;19.43;14.30;;;12.70;99.90;;;;;;5084956;28;20229;-31
2022/09/30 09:33:43;;;;;;;21.33;14.60;;;12.80;99.90;;;;;;5083646;28;20189;-32
2022/09/30 09:36:13;;;;;;;19.93;14.50;;;12.90;99.90;;;;;;5085153;28;20207;-32
2022/09/30 09:39:06;;;;;;;20.67;14.30;;;13.00;99.90;;;;;;5078150;28;20304;-31
2022/09/30 09:41:53;;;;;;;20.03;14.47;;;13.10;99.90;;;;;;5082784;28;20697;-32
2022/09/30 09:44:47;;;;;;;19.03;13.47;;;13.10;99.90;;;;;;5084286;28;20249;-32
2022/09/30 09:47:19;;;;;;;17.70;12.83;;;13.20;99.90;;;;;;5080352;28;20238;-31
2022/09/30 09:49:57;;;;;;;18.83;12.70;;;13.30;99.90;;;;;;5085120;28;20206;-32
2022/09/30 09:52:39;;;;;;;17.63;13.03;;;13.40;99.90;;;;;;5080743;28;20211;-32
2022/09/30 09:55:11;;;;;;;14.87;10.93;;;13.40;99.90;;;;;;5081327;28;20217;-31
2022/09/30 09:57:41;;;;;;;14.33;10.43;;;13.50;99.90;;;;;;5065222;28;20263;-33
2022/09/30 10:03:25;;;;;;;13.87;9.17;;;13.70;99.90;;;;;;5075592;28;20219;-31
2022/09/30 10:06:07;;;;;;;18.77;9.53;;;13.80;99.90;;;;;;5084030;28;20746;-31
2022/09/30 10:08:38;;;;;;;12.70;9.67;;;13.90;99.90;;;;;;5073675;28;20318;-31
2022/09/30 10:11:16;;;;;;;12.87;9.47;;;13.90;99.90;;;;;;5081715;28;20223;-32
2022/09/30 10:13:50;;;;;;;12.87;8.47;;;14.00;99.90;;;;;;5068641;28;20306;-32
2022/09/30 10:16:26;;;;;;;13.60;7.87;;;14.00;99.90;;;;;;5074737;28;20639;-31
2022/09/30 10:18:55;;;;;;;7.47;6.70;;;14.10;99.90;;;;;;5082864;28;20234;-32
2022/09/30 10:21:27;;;;;;;8.00;6.27;;;14.20;99.90;;;;;;5079765;28;20239;-32
2022/09/30 10:23:58;;;;;;;8.27;6.50;;;14.20;99.90;;;;;;5082903;28;20295;-32
2022/09/30 10:26:28;;;;;;;7.37;6.07;;;14.30;99.90;;;;;;5082379;28;20281;-31
2022/09/30 10:28:58;;;;;;;9.43;5.50;;;14.40;99.90;;;;;;5078789;28;20294;-33
2022/09/30 10:31:26;;;;;;;5.80;3.93;;;14.40;99.90;;;;;;5083220;28;20218;-32
2022/09/30 10:34:17;;;;;;;5.20;3.50;;;14.50;99.90;;;;;;5074875;28;20286;-33
2022/09/30 10:36:47;;;;;;;5.50;4.00;;;14.50;99.90;;;;;;5077286;28;20195;-32
2022/09/30 10:39:24;;;;;;;4.10;3.10;;;14.60;99.90;;;;;;5061459;28;20216;-32
2022/09/30 10:42:22;;;;;;;2.40;2.17;;;14.60;99.90;;;;;;5078477;28;20232;-32
2022/09/30 10:45:02;;;;;;;4.80;2.07;;;14.70;99.90;;;;;;5082811;28;20321;-33
2022/09/30 10:47:32;;;;;;;3.00;2.00;;;14.70;99.90;;;;;;5080473;28;20742;-32
2022/09/30 10:50:19;;;;;;;2.63;1.87;;;14.80;99.90;;;;;;5083048;28;20209;-33
2022/09/30 10:52:53;;;;;;;2.33;1.60;;;14.80;99.90;;;;;;5083003;28;20197;-32
2022/09/30 10:55:21;;;;;;;2.27;1.90;;;14.90;99.90;;;;;;5081535;28;20219;-33
2022/09/30 10:57:52;;;;;;;1.83;1.33;;;14.90;99.90;;;;;;5081787;28;20618;-32
2022/09/30 11:00:24;;;;;;;3.87;1.97;;;15.00;99.90;;;;;;5083599;28;20752;-32
2022/09/30 11:03:04;;;;;;;3.43;1.77;;;15.00;99.90;;;;;;5082240;28;20198;-31
2022/09/30 11:05:46;;;;;;;3.13;1.80;;;15.10;99.90;;;;;;5064574;28;20681;-33
2022/09/30 11:08:46;;;;;;;17.77;2.97;;;15.10;99.90;;;;;;5073239;28;20201;-33
2022/09/30 11:11:33;;;;;;;3.90;1.17;;;15.20;99.90;;;;;;5076393;28;20219;-31
2022/09/30 11:14:17;;;;;;;9.03;2.27;;;15.20;99.90;;;;;;5082745;28;20758;-32
2022/09/30 11:16:59;;;;;;;5.47;1.40;;;15.30;99.90;;;;;;5082607;28;20230;-32
2022/09/30 11:19:31;;;;;;;5.57;1.77;;;15.40;99.90;;;;;;5083791;28;20226;-32
2022/09/30 11:22:27;;;;;;;4.90;1.90;;;15.40;99.90;;;;;;5074298;28;20195;-31
2022/09/30 11:24:56;;;;;;;2.03;1.43;;;15.40;99.90;;;;;;5080904;28;20526;-32
2022/09/30 11:27:41;;;;;;;3.37;1.10;;;15.50;99.90;;;;;;5082639;28;20207;-31
2022/09/30 11:30:17;;;;;;;2.37;1.03;;;15.50;99.90;;;;;;5083468;28;20222;-33
2022/09/30 11:33:14;;;;;;;4.27;1.03;;;15.50;99.90;;;;;;5081974;28;20203;-31
2022/09/30 11:35:54;;;;;;;56.03;8.07;;;15.60;99.90;;;;;;5082917;28;20746;-32
2022/09/30 11:38:42;;;;;;;6.33;2.23;;;15.70;99.90;;;;;;5064557;28;20211;-32
2022/09/30 11:41:14;;;;;;;3.43;1.63;;;15.70;99.90;;;;;;5080521;28;20214;-31
2022/09/30 11:43:56;;;;;;;4.07;1.60;;;15.80;99.90;;;;;;5082576;28;20689;-31
2022/09/30 11:47:07;;;;;;;3.13;1.50;;;15.90;99.90;;;;;;5084220;28;20203;-33
2022/09/30 11:49:56;;;;;;;5.80;1.47;;;15.90;99.90;;;;;;5082994;28;20554;-32
2022/09/30 11:52:26;;;;;;;4.10;1.70;;;16.00;99.90;;;;;;5083540;28;20257;-32
2022/09/30 11:55:31;;;;;;;5.83;2.40;;;16.00;99.90;;;;;;5081989;28;20337;-32
2022/09/30 11:58:07;;;;;;;2.73;1.60;;;16.10;99.90;;;;;;5076750;28;20207;-32
2022/09/30 12:01:20;;;;;;;3.33;1.83;;;16.10;99.90;;;;;;5081419;28;20290;-31
2022/09/30 12:04:14;;;;;;;11.63;2.87;;;16.20;99.90;;;;;;5084001;28;20340;-32
2022/09/30 12:06:52;;;;;;;14.53;3.70;;;16.20;99.90;;;;;;5072563;28;20728;-32
2022/09/30 12:09:36;;;;;;;7.87;2.70;;;16.30;99.90;;;;;;5064816;28;20206;-31
2022/09/30 12:12:13;;;;;;;6.07;2.10;;;16.30;99.90;;;;;;5071056;28;20246;-32
2022/09/30 12:14:54;;;;;;;3.57;1.90;;;16.30;99.90;;;;;;5080556;28;20314;-32
2022/09/30 12:17:35;;;;;;;2.73;1.80;;;16.40;99.90;;;;;;5070965;28;20204;-32
2022/09/30 12:20:35;;;;;;;7.13;3.20;;;16.40;99.90;;;;;;5076869;28;20306;-31
2022/09/30 12:23:13;;;;;;;7.47;4.10;;;16.40;99.90;;;;;;5084079;28;20248;-31
2022/09/30 12:25:46;;;;;;;7.17;3.50;;;16.40;99.90;;;;;;5083133;28;20198;-32
2022/09/30 12:31:46;;;;;;;7.70;3.13;;;16.50;99.90;;;;;;5084648;28;20820;-32
2022/09/30 12:34:39;;;;;;;5.87;2.80;;;16.50;99.90;;;;;;5082133;28;20529;-32
2022/09/30 12:37:31;;;;;;;10.80;3.97;;;16.60;99.90;;;;;;5071332;28;20319;-32
2022/09/30 12:40:18;;;;;;;6.33;3.50;;;16.70;99.90;;;;;;5081992;28;20666;-33
2022/09/30 12:43:04;;;;;;;4.30;3.10;;;16.80;99.90;;;;;;5080338;28;20210;-32
2022/09/30 12:45:54;;;;;;;6.90;3.50;;;16.90;99.90;;;;;;5084670;28;20215;-31
2022/09/30 12:48:30;;;;;;;5.33;3.10;;;17.00;99.90;;;;;;5084610;28;20256;-32
2022/09/30 12:51:00;;;;;;;5.00;2.90;;;17.10;99.90;;;;;;5079657;28;20701;-32
2022/09/30 12:53:31;;;;;;;5.53;3.47;;;17.10;99.90;;;;;;5080108;28;20732;-32
2022/09/30 12:56:05;;;;;;;5.77;2.87;;;17.10;99.90;;;;;;5055779;28;20222;-32
2022/09/30 12:58:47;;;;;;;3.87;2.40;;;17.10;99.90;;;;;;5076634;28;20297;-32
2022/09/30 13:01:32;;;;;;;4.77;2.40;;;17.10;99.90;;;;;;5081898;28;20204;-32
2022/09/30 13:03:59;;;;;;;3.70;2.90;;;17.10;99.90;;;;;;5076640;28;20665;-32
2022/09/30 13:06:46;;;;;;;6.57;2.63;;;17.10;99.90;;;;;;5071781;28;20199;-31
2022/09/30 13:09:16;;;;;;;6.07;2.83;;;17.20;99.90;;;;;;5084586;28;20215;-32
2022/09/30 13:11:47;;;;;;;4.03;3.17;;;17.20;99.90;;;;;;5083995;28;20497;-32
2022/09/30 13:14:31;;;;;;;4.87;2.40;;;17.30;99.90;;;;;;5071250;28;20876;-32
2022/09/30 13:17:07;;;;;;;4.20;2.60;;;17.30;99.90;;;;;;5082924;28;20254;-33
2022/09/30 13:19:47;;;;;;;5.77;2.80;;;17.40;99.90;;;;;;5081552;28;20205;-32
2022/09/30 13:22:20;;;;;;;6.00;3.13;;;17.40;99.90;;;;;;5079039;28;20698;-32
2022/09/30 13:25:04;;;;;;;4.53;3.23;;;17.40;99.90;;;;;;5078752;28;20253;-32
2022/09/30 13:27:31;;;;;;;4.90;3.17;;;17.40;99.90;;;;;;5085350;28;20223;-32
2022/09/30 13:30:00;;;;;;;4.90;2.63;;;17.50;99.90;;;;;;5085190;28;20203;-32
2022/09/30 13:32:36;;;;;;;3.13;2.60;;;17.50;99.90;;;;;;5080875;28;20942;-32